createdAt,value
2018-02-22T00:00:22.598Z,56.30
2018-02-22T00:02:50.150Z,57.53
2018-02-22T00:05:17.723Z,55.40
2018-02-22T00:07:45.282Z,57.27
2018-02-22T00:10:12.846Z,57.37
2018-02-22T00:12:40.536Z,55.50
2018-02-22T00:15:08.079Z,58.43
2018-02-22T00:17:35.730Z,59.10
2018-02-22T00:20:03.446Z,53.83
2018-02-22T00:22:31.875Z,52.83
2018-02-22T00:24:59.425Z,55.50
2018-02-22T00:27:27.004Z,54.30
2018-02-22T00:29:54.654Z,52.57
2018-02-22T00:32:22.247Z,54.87
2018-02-22T00:34:49.873Z,55.53
2018-02-22T00:37:17.425Z,51.87
2018-02-22T00:39:44.991Z,56.50
2018-02-22T00:42:12.532Z,50.83
2018-02-22T00:44:40.117Z,58.33
2018-02-22T00:47:07.691Z,53.70
2018-02-22T00:49:35.235Z,55.47
2018-02-22T00:52:02.784Z,57.40
2018-02-22T00:54:30.354Z,52.63
2018-02-22T00:56:58.261Z,53.23
2018-02-22T00:59:26.564Z,52.47
2018-02-22T01:01:54.149Z,53.60
2018-02-22T01:04:21.728Z,53.53
2018-02-22T01:06:49.272Z,55.23
2018-02-22T01:09:16.826Z,55.00
2018-02-22T01:11:44.398Z,50.97
2018-02-22T01:14:11.967Z,50.87
2018-02-22T01:16:39.534Z,52.47
2018-02-22T01:19:07.182Z,54.47
2018-02-22T01:21:34.726Z,54.43
2018-02-22T01:24:02.309Z,54.17
2018-02-22T01:26:29.979Z,58.53
2018-02-22T01:28:57.513Z,51.30
2018-02-22T01:31:25.299Z,52.00
2018-02-22T01:33:52.853Z,51.30
2018-02-22T01:36:20.402Z,55.87
2018-02-22T01:38:47.946Z,52.90
2018-02-22T01:41:15.520Z,54.10
2018-02-22T01:43:43.054Z,55.80
2018-02-22T01:46:10.615Z,56.73
2018-02-22T01:48:38.182Z,55.90
2018-02-22T01:51:05.771Z,53.77
2018-02-22T01:53:33.328Z,53.07
2018-02-22T01:56:00.894Z,53.13
2018-02-22T01:58:28.438Z,57.87
2018-02-22T02:00:56.011Z,56.67
2018-02-22T02:03:23.582Z,54.33
2018-02-22T02:05:51.164Z,60.03
2018-02-22T02:08:18.747Z,55.93
2018-02-22T02:10:47.064Z,54.20
2018-02-22T02:13:14.629Z,57.90
2018-02-22T02:15:42.362Z,57.63
2018-02-22T02:18:09.913Z,56.20
2018-02-22T02:20:38.346Z,60.17
2018-02-22T02:23:05.997Z,57.60
2018-02-22T02:25:33.547Z,58.50
2018-02-22T02:28:06.818Z,56.13
2018-02-22T02:30:34.398Z,58.63
2018-02-22T02:33:01.988Z,55.67
2018-02-22T02:35:29.549Z,60.67
2018-02-22T02:37:57.196Z,55.23
2018-02-22T02:40:24.763Z,57.37
2018-02-22T02:42:52.441Z,57.53
2018-02-22T02:45:19.997Z,59.80
2018-02-22T02:47:47.631Z,59.03
2018-02-22T02:50:15.219Z,60.47
2018-02-22T02:52:42.866Z,61.27
2018-02-22T02:55:11.436Z,62.45
2018-02-22T02:57:38.974Z,56.17
2018-02-22T03:00:06.538Z,54.53
2018-02-22T03:02:34.135Z,59.63
2018-02-22T03:05:01.693Z,59.10
2018-02-22T03:07:29.244Z,62.80
2018-02-22T03:09:56.783Z,60.07
2018-02-22T03:12:24.347Z,59.77
2018-02-22T03:14:51.903Z,62.83
2018-02-22T03:17:19.449Z,60.50
2018-02-22T03:19:46.994Z,56.33
2018-02-22T03:22:15.324Z,58.97
2018-02-22T03:24:42.880Z,59.17
2018-02-22T03:27:10.437Z,59.83
2018-02-22T03:29:38.027Z,62.27
2018-02-22T03:32:05.673Z,61.10
2018-02-22T03:34:33.337Z,62.43
2018-02-22T03:37:00.915Z,62.43
2018-02-22T03:39:28.459Z,62.70
2018-02-22T03:41:56.006Z,57.00
2018-02-22T03:44:23.569Z,60.33
2018-02-22T03:46:51.122Z,59.73
2018-02-22T03:49:18.661Z,61.40
2018-02-22T03:51:46.214Z,61.60
2018-02-22T03:54:13.756Z,61.03
2018-02-22T03:56:42.068Z,58.10
2018-02-22T03:59:09.679Z,64.03
2018-02-22T04:01:37.219Z,63.73
2018-02-22T04:04:04.783Z,59.07
2018-02-22T04:06:32.319Z,56.83
2018-02-22T04:08:59.861Z,59.33
2018-02-22T04:11:27.442Z,60.30
2018-02-22T04:13:55.007Z,63.37
2018-02-22T04:16:22.552Z,58.70
2018-02-22T04:18:50.108Z,58.80
2018-02-22T04:21:17.661Z,56.00
2018-02-22T04:23:45.208Z,60.53
2018-02-22T04:26:12.779Z,58.70
2018-02-22T04:28:40.374Z,55.43
2018-02-22T04:31:07.919Z,65.53
2018-02-22T04:33:35.481Z,56.53
2018-02-22T04:36:03.028Z,57.00
2018-02-22T04:38:30.571Z,52.83
2018-02-22T04:40:58.130Z,56.37
2018-02-22T04:43:25.663Z,58.57
2018-02-22T04:45:53.291Z,57.30
2018-02-22T04:48:20.954Z,57.30
2018-02-22T04:50:48.497Z,57.20
2018-02-22T04:53:16.068Z,60.07
2018-02-22T04:55:43.747Z,57.77
2018-02-22T04:58:11.285Z,59.83
2018-02-22T05:00:38.841Z,62.53
2018-02-22T05:03:06.417Z,56.67
2018-02-22T05:05:33.980Z,57.63
2018-02-22T05:08:01.526Z,60.60
2018-02-22T05:10:29.208Z,58.23
2018-02-22T05:12:56.860Z,61.70
2018-02-22T05:15:24.422Z,47.93
2018-02-22T05:17:51.978Z,46.50
2018-02-22T05:20:19.536Z,45.90
2018-02-22T05:22:47.079Z,44.97
2018-02-22T05:25:14.643Z,45.30
2018-02-22T05:27:42.192Z,44.37
2018-02-22T05:30:10.811Z,46.83
2018-02-22T05:32:38.381Z,49.50
2018-02-22T05:35:06.030Z,43.10
2018-02-22T05:37:33.589Z,46.97
2018-02-22T05:40:01.174Z,47.43
2018-02-22T05:42:28.737Z,47.57
2018-02-22T05:45:04.369Z,41.57
2018-02-22T05:47:31.915Z,46.93
2018-02-22T05:49:59.469Z,45.63
2018-02-22T05:52:27.040Z,39.43
2018-02-22T05:54:54.583Z,41.60
2018-02-22T05:57:22.130Z,44.10
2018-02-22T05:59:49.740Z,39.40
2018-02-22T06:02:17.302Z,46.70
2018-02-22T06:04:44.880Z,42.43
2018-02-22T06:07:13.219Z,40.73
2018-02-22T06:09:40.758Z,44.27
2018-02-22T06:12:08.343Z,43.40
2018-02-22T06:14:35.926Z,41.53
2018-02-22T06:17:03.492Z,41.67
2018-02-22T06:19:31.043Z,40.20
2018-02-22T06:21:59.370Z,38.00
2018-02-22T06:24:26.917Z,37.17
2018-02-22T06:26:54.520Z,42.90
2018-02-22T06:29:22.190Z,43.93
2018-02-22T06:31:49.752Z,52.60
2018-02-22T06:34:17.317Z,50.60
2018-02-22T06:36:44.902Z,51.50
2018-02-22T06:39:13.230Z,52.27
2018-02-22T06:41:40.780Z,52.97
2018-02-22T06:44:08.361Z,52.50
2018-02-22T06:46:35.984Z,54.90
2018-02-22T06:49:03.527Z,52.30
2018-02-22T06:51:31.967Z,47.17
2018-02-22T06:53:59.513Z,48.03
2018-02-22T06:56:27.046Z,44.00
2018-02-22T06:58:54.629Z,40.80
2018-02-22T07:01:22.193Z,34.43
2018-02-22T07:03:49.754Z,36.80
2018-02-22T07:06:17.326Z,38.90
2018-02-22T07:08:44.873Z,39.23
2018-02-22T07:11:12.423Z,36.60
2018-02-22T07:13:39.974Z,38.33
2018-02-22T07:16:07.542Z,39.47
2018-02-22T07:18:35.101Z,40.80
2018-02-22T07:21:02.789Z,42.60
2018-02-22T07:23:30.351Z,40.10
2018-02-22T07:25:57.916Z,42.57
2018-02-22T07:28:25.498Z,35.80
2018-02-22T07:30:53.055Z,34.60
2018-02-22T07:33:20.607Z,37.13
2018-02-22T07:35:48.255Z,37.60
2018-02-22T07:38:15.922Z,39.23
2018-02-22T07:40:43.485Z,30.77
2018-02-22T07:43:11.090Z,36.27
2018-02-22T07:45:38.610Z,36.43
2018-02-22T07:48:06.252Z,36.10
2018-02-22T07:50:33.815Z,36.07
2018-02-22T07:53:02.121Z,29.53
2018-02-22T07:55:29.757Z,27.60
2018-02-22T07:57:57.309Z,23.37
2018-02-22T08:00:24.866Z,31.37
2018-02-22T08:02:52.440Z,22.70
2018-02-22T08:05:20.102Z,23.10
2018-02-22T08:07:47.751Z,26.77
2018-02-22T08:10:15.336Z,19.47
2018-02-22T08:12:42.992Z,18.70
2018-02-22T08:15:11.162Z,21.17
2018-02-22T08:17:38.725Z,31.73
2018-02-22T08:20:06.377Z,19.50
2018-02-22T08:22:33.923Z,19.47
2018-02-22T08:25:01.495Z,19.83
2018-02-22T08:27:29.064Z,24.40
2018-02-22T08:29:56.597Z,28.93
2018-02-22T08:32:24.152Z,24.87
2018-02-22T08:34:51.737Z,27.90
2018-02-22T08:37:20.072Z,20.90
2018-02-22T08:39:48.500Z,23.77
2018-02-22T08:42:16.068Z,17.10
2018-02-22T08:44:43.781Z,26.83
2018-02-22T08:47:11.302Z,17.33
2018-02-22T08:49:38.863Z,20.70
2018-02-22T08:52:06.429Z,16.47
2018-02-22T08:54:34.735Z,17.60
2018-02-22T08:57:02.304Z,15.17
2018-02-22T08:59:29.840Z,21.93
2018-02-22T09:01:58.183Z,15.27
2018-02-22T09:04:25.751Z,19.33
2018-02-22T09:06:53.392Z,15.37
2018-02-22T09:09:20.937Z,16.97
2018-02-22T09:11:48.502Z,24.30
2018-02-22T09:14:16.061Z,22.27
2018-02-22T09:16:43.606Z,17.57
2018-02-22T09:19:11.179Z,26.33
2018-02-22T09:21:38.726Z,14.73
2018-02-22T09:24:06.277Z,16.00
2018-02-22T09:26:33.848Z,17.60
2018-02-22T09:29:01.439Z,23.07
2018-02-22T09:31:29.009Z,16.90
2018-02-22T09:33:56.575Z,19.17
2018-02-22T09:36:24.224Z,25.03
2018-02-22T09:38:51.768Z,12.37
2018-02-22T09:41:19.329Z,15.57
2018-02-22T09:43:47.021Z,17.10
2018-02-22T09:46:14.588Z,15.93
2018-02-22T09:48:42.157Z,20.53
2018-02-22T09:51:09.793Z,18.70
2018-02-22T09:53:37.338Z,24.17
2018-02-22T09:56:04.889Z,17.33
2018-02-22T09:58:32.443Z,18.40
2018-02-22T10:00:59.986Z,14.77
2018-02-22T10:03:27.554Z,16.13
2018-02-22T10:05:55.082Z,17.50
2018-02-22T10:08:23.397Z,21.77
2018-02-22T10:10:50.989Z,13.47
2018-02-22T10:13:18.539Z,17.47
2018-02-22T10:15:46.077Z,19.83
2018-02-22T10:18:13.642Z,17.10
2018-02-22T10:20:41.187Z,25.17
2018-02-22T10:23:08.771Z,21.60
2018-02-22T10:25:36.343Z,20.77
2018-02-22T10:28:03.887Z,14.63
2018-02-22T10:30:31.452Z,16.80
2018-02-22T10:32:58.997Z,18.33
2018-02-22T10:35:26.547Z,11.93
2018-02-22T10:37:54.075Z,22.37
2018-02-22T10:40:21.649Z,12.80
2018-02-22T10:42:49.968Z,13.63
2018-02-22T10:45:17.518Z,10.70
2018-02-22T10:47:45.094Z,17.77
2018-02-22T10:50:12.649Z,16.23
2018-02-22T10:52:40.190Z,14.87
2018-02-22T10:55:07.760Z,16.10
2018-02-22T10:57:35.301Z,12.67
2018-02-22T11:00:02.854Z,16.93
2018-02-22T11:02:36.803Z,11.47
2018-02-22T11:05:04.353Z,13.83
2018-02-22T11:07:32.022Z,11.60
2018-02-22T11:09:59.609Z,19.60
2018-02-22T11:12:27.178Z,18.53
2018-02-22T11:14:54.826Z,17.57
2018-02-22T11:17:22.422Z,15.87
2018-02-22T11:19:50.733Z,13.13
2018-02-22T11:22:18.296Z,17.13
2018-02-22T11:24:45.875Z,11.37
2018-02-22T11:27:13.546Z,15.77
2018-02-22T11:29:41.113Z,15.67
2018-02-22T11:32:08.776Z,12.47
2018-02-22T11:34:36.345Z,8.73
2018-02-22T11:37:03.916Z,16.83
2018-02-22T11:39:32.232Z,10.37
2018-02-22T11:41:59.776Z,11.23
2018-02-22T11:44:27.388Z,13.63
2018-02-22T11:46:54.962Z,11.97
2018-02-22T11:49:22.608Z,8.33
2018-02-22T11:51:50.185Z,9.90
2018-02-22T11:54:17.746Z,15.20
2018-02-22T11:56:45.292Z,13.93
2018-02-22T11:59:12.850Z,12.40
2018-02-22T12:01:40.504Z,10.83
2018-02-22T12:04:08.052Z,13.77
2018-02-22T12:06:35.635Z,10.23
2018-02-22T12:09:03.193Z,10.73
2018-02-22T12:11:30.758Z,11.60
2018-02-22T12:13:58.417Z,10.27
2018-02-22T12:16:25.971Z,10.97
2018-02-22T12:18:53.530Z,9.93
2018-02-22T12:21:21.079Z,13.50
2018-02-22T12:23:48.743Z,8.60
2018-02-22T12:26:16.303Z,14.50
2018-02-22T12:28:43.857Z,8.40
2018-02-22T12:31:11.545Z,10.53
2018-02-22T12:33:39.203Z,10.83
2018-02-22T12:36:06.859Z,8.07
2018-02-22T12:38:34.420Z,9.67
2018-02-22T12:41:02.044Z,8.67
2018-02-22T12:43:30.646Z,9.07
2018-02-22T12:45:58.218Z,9.80
2018-02-22T12:48:25.765Z,10.40
2018-02-22T12:50:53.348Z,8.00
2018-02-22T12:53:20.915Z,8.60
2018-02-22T12:55:48.579Z,9.33
2018-02-22T12:58:16.117Z,8.77
2018-02-22T13:00:43.688Z,11.83
2018-02-22T13:03:11.349Z,8.27
2018-02-22T13:05:39.040Z,12.40
2018-02-22T13:08:06.683Z,8.80
2018-02-22T13:10:34.239Z,8.70
2018-02-22T13:13:01.785Z,10.70
2018-02-22T13:15:29.348Z,10.60
2018-02-22T13:17:56.893Z,11.00
2018-02-22T13:20:24.441Z,6.77
2018-02-22T13:22:51.998Z,9.60
2018-02-22T13:25:19.550Z,8.23
2018-02-22T13:27:47.155Z,15.37
2018-02-22T13:30:14.797Z,10.87
2018-02-22T13:32:54.332Z,6.47
2018-02-22T13:35:21.893Z,7.10
2018-02-22T13:38:10.994Z,7.07
2018-02-22T13:40:38.570Z,9.57
2018-02-22T13:43:06.111Z,9.57
2018-02-22T13:45:34.488Z,6.47
2018-02-22T13:48:02.068Z,8.23
2018-02-22T13:50:41.587Z,14.00
2018-02-22T13:53:09.162Z,8.47
2018-02-22T13:55:36.693Z,10.27
2018-02-22T13:58:04.247Z,6.70
2018-02-22T14:00:43.483Z,10.40
2018-02-22T14:03:11.044Z,15.37
2018-02-22T14:05:38.621Z,8.47
2018-02-22T14:08:06.271Z,17.27
2018-02-22T14:10:33.821Z,6.07
2018-02-22T14:13:01.386Z,7.17
2018-02-22T14:15:28.938Z,9.27
2018-02-22T14:17:56.482Z,9.37
2018-02-22T14:20:24.070Z,13.27
2018-02-22T14:22:51.639Z,8.47
2018-02-22T14:25:19.198Z,7.27
2018-02-22T14:27:46.747Z,7.40
2018-02-22T14:30:14.315Z,10.47
2018-02-22T14:32:41.851Z,6.37
2018-02-22T14:35:09.793Z,9.00
2018-02-22T14:37:38.126Z,9.63
2018-02-22T14:40:05.788Z,8.40
2018-02-22T14:42:33.340Z,12.20
2018-02-22T14:45:00.905Z,12.67
2018-02-22T14:47:28.469Z,12.13
2018-02-22T14:49:56.018Z,7.87
2018-02-22T14:52:23.576Z,11.70
2018-02-22T14:54:51.126Z,9.67
2018-02-22T14:57:18.688Z,11.53
2018-02-22T14:59:46.255Z,9.87
2018-02-22T15:02:19.434Z,8.37
2018-02-22T15:04:47.846Z,12.83
2018-02-22T15:07:15.396Z,10.23
2018-02-22T15:09:42.956Z,9.60
2018-02-22T15:12:10.540Z,11.03
2018-02-22T15:14:38.087Z,26.50
2018-02-22T15:17:05.761Z,8.77
2018-02-22T15:19:33.331Z,9.07
2018-02-22T15:22:00.892Z,8.00
2018-02-22T15:24:28.449Z,7.80
2018-02-22T15:26:56.092Z,8.37
2018-02-22T15:29:23.652Z,11.33
2018-02-22T15:31:51.311Z,9.53
2018-02-22T15:34:18.966Z,6.83
2018-02-22T15:36:46.523Z,8.57
2018-02-22T15:39:14.115Z,9.83
2018-02-22T15:41:41.709Z,5.37
2018-02-22T15:44:09.331Z,6.73
2018-02-22T15:46:36.903Z,6.57
2018-02-22T15:49:04.489Z,6.33
2018-02-22T15:51:32.047Z,9.63
2018-02-22T15:54:00.372Z,6.33
2018-02-22T15:56:27.945Z,17.33
2018-02-22T15:58:55.603Z,5.77
2018-02-22T16:01:23.154Z,7.97
2018-02-22T16:03:50.693Z,8.27
2018-02-22T16:06:18.256Z,9.97
2018-02-22T16:08:45.790Z,6.63
2018-02-22T16:11:14.129Z,7.33
2018-02-22T16:13:41.674Z,8.47
2018-02-22T16:16:09.232Z,7.03
2018-02-22T16:18:37.711Z,5.33
2018-02-22T16:21:05.267Z,7.27
2018-02-22T16:23:32.843Z,6.50
2018-02-22T16:26:00.509Z,11.10
2018-02-22T16:28:28.167Z,6.47
2018-02-22T16:30:55.706Z,9.83
2018-02-22T16:33:23.254Z,7.33
2018-02-22T16:35:50.818Z,8.83
2018-02-22T16:38:18.357Z,6.37
2018-02-22T16:40:45.949Z,6.83
2018-02-22T16:43:13.496Z,6.37
2018-02-22T16:45:41.084Z,8.33
2018-02-22T16:48:08.635Z,6.40
2018-02-22T16:50:36.211Z,10.00
2018-02-22T16:53:03.756Z,6.60
2018-02-22T16:55:31.303Z,6.13
2018-02-22T16:57:58.858Z,9.80
2018-02-22T17:00:26.437Z,6.20
2018-02-22T17:02:54.755Z,6.63
2018-02-22T17:05:23.065Z,7.27
2018-02-22T17:07:50.602Z,7.17
2018-02-22T17:10:18.922Z,7.20
2018-02-22T17:12:46.482Z,6.70
2018-02-22T17:15:14.054Z,7.10
2018-02-22T17:17:45.443Z,13.43
2018-02-22T17:20:13.776Z,8.93
2018-02-22T17:22:41.324Z,7.13
2018-02-22T17:25:08.906Z,6.07
2018-02-22T17:27:42.165Z,10.57
2018-02-22T17:30:16.179Z,8.00
2018-02-22T17:32:43.711Z,20.40
2018-02-22T17:35:22.749Z,11.67
2018-02-22T17:37:51.062Z,10.47
2018-02-22T17:40:24.275Z,13.83
2018-02-22T17:42:52.596Z,17.13
2018-02-22T17:45:20.930Z,22.87
2018-02-22T17:47:48.500Z,23.63
2018-02-22T17:50:16.150Z,14.53
2018-02-22T17:52:43.701Z,16.77
2018-02-22T17:55:11.263Z,19.20
2018-02-22T17:57:38.812Z,20.23
2018-02-22T18:00:06.528Z,37.30
2018-02-22T18:02:34.864Z,15.17
2018-02-22T18:05:02.529Z,24.70
2018-02-22T18:07:30.089Z,10.93
2018-02-22T18:09:57.642Z,33.77
2018-02-22T18:12:25.207Z,8.87
2018-02-22T18:14:52.766Z,14.67
2018-02-22T18:17:20.314Z,9.07
2018-02-22T18:19:47.871Z,12.30
2018-02-22T18:22:15.425Z,14.60
2018-02-22T18:24:43.004Z,9.07
2018-02-22T18:27:10.556Z,25.30
2018-02-22T18:29:38.107Z,24.53
2018-02-22T18:32:05.751Z,9.47
2018-02-22T18:34:33.299Z,10.07
2018-02-22T18:37:01.628Z,9.27
2018-02-22T18:39:29.188Z,7.23
2018-02-22T18:42:02.463Z,14.33
2018-02-22T18:44:47.695Z,9.20
2018-02-22T18:47:16.015Z,13.20
2018-02-22T18:49:43.590Z,8.00
2018-02-22T18:52:11.155Z,9.37
2018-02-22T18:54:38.700Z,12.60
2018-02-22T18:57:07.128Z,14.30
2018-02-22T18:59:34.759Z,9.60
2018-02-22T19:02:02.302Z,6.57
2018-02-22T19:04:29.848Z,7.63
2018-02-22T19:06:57.389Z,7.40
2018-02-22T19:09:25.694Z,10.50
2018-02-22T19:11:53.267Z,13.70
2018-02-22T19:14:20.803Z,9.73
2018-02-22T19:16:48.349Z,12.60
2018-02-22T19:19:16.669Z,15.10
2018-02-22T19:21:44.236Z,9.33
2018-02-22T19:24:11.890Z,12.77
2018-02-22T19:26:39.447Z,13.10
2018-02-22T19:29:07.038Z,8.47
2018-02-22T19:31:34.584Z,8.13
2018-02-22T19:34:02.149Z,8.73
2018-02-22T19:36:29.718Z,11.13
2018-02-22T19:38:57.371Z,14.30
2018-02-22T19:41:24.961Z,7.07
2018-02-22T19:43:53.398Z,12.40
2018-02-22T19:46:20.924Z,10.83
2018-02-22T19:48:48.503Z,16.07
2018-02-22T19:51:16.087Z,12.53
2018-02-22T19:53:43.620Z,9.40
2018-02-22T19:56:11.163Z,10.30
2018-02-22T19:58:38.721Z,27.57
2018-02-22T20:01:06.837Z,14.60
2018-02-22T20:03:34.379Z,20.83
2018-02-22T20:06:01.941Z,16.70
2018-02-22T20:08:29.495Z,17.47
2018-02-22T20:10:57.066Z,23.00
2018-02-22T20:13:24.621Z,14.23
2018-02-22T20:15:52.172Z,9.67
2018-02-22T20:18:19.758Z,20.50
2018-02-22T20:20:47.313Z,14.63
2018-02-22T20:23:14.856Z,20.60
2018-02-22T20:25:42.449Z,30.40
2018-02-22T20:28:10.018Z,21.80
2018-02-22T20:30:37.568Z,21.13
2018-02-22T20:33:05.204Z,17.73
2018-02-22T20:35:32.769Z,30.53
2018-02-22T20:38:00.341Z,13.73
2018-02-22T20:40:28.000Z,21.00
2018-02-22T20:42:55.583Z,24.40
2018-02-22T20:45:23.152Z,15.33
2018-02-22T20:47:50.696Z,21.50
2018-02-22T20:50:19.035Z,18.90
2018-02-22T20:52:52.131Z,23.43
2018-02-22T20:55:20.509Z,23.20
2018-02-22T20:57:48.067Z,15.23
2018-02-22T21:00:15.622Z,17.03
2018-02-22T21:02:43.192Z,22.03
2018-02-22T21:05:10.740Z,22.20
2018-02-22T21:07:39.110Z,18.73
2018-02-22T21:10:06.683Z,15.23
2018-02-22T21:12:34.247Z,21.93
2018-02-22T21:15:01.828Z,14.10
2018-02-22T21:17:29.392Z,13.10
2018-02-22T21:19:57.050Z,16.93
2018-02-22T21:22:24.587Z,20.60
2018-02-22T21:24:52.126Z,16.47
2018-02-22T21:27:19.718Z,16.03
2018-02-22T21:29:47.290Z,18.97
2018-02-22T21:32:14.840Z,17.30
2018-02-22T21:34:42.418Z,13.60
2018-02-22T21:37:09.982Z,22.07
2018-02-22T21:39:37.589Z,19.27
2018-02-22T21:42:05.152Z,20.17
2018-02-22T21:44:32.707Z,22.07
2018-02-22T21:47:00.261Z,12.73
2018-02-22T21:49:28.569Z,16.43
2018-02-22T21:51:56.122Z,15.43
2018-02-22T21:54:23.695Z,18.37
2018-02-22T21:56:51.272Z,15.53
2018-02-22T21:59:18.930Z,13.53
2018-02-22T22:01:46.489Z,18.07
2018-02-22T22:04:14.039Z,12.43
2018-02-22T22:06:41.621Z,18.80
2018-02-22T22:09:09.182Z,16.93
2018-02-22T22:11:36.736Z,17.47
2018-02-22T22:14:04.288Z,16.60
2018-02-22T22:16:31.856Z,13.50
2018-02-22T22:18:59.408Z,23.57
2018-02-22T22:21:26.955Z,11.33
2018-02-22T22:23:54.527Z,18.40
2018-02-22T22:26:22.065Z,12.67
2018-02-22T22:28:49.604Z,13.97
2018-02-22T22:31:17.941Z,21.10
2018-02-22T22:33:45.604Z,17.30
2018-02-22T22:36:13.254Z,18.13
2018-02-22T22:38:40.804Z,12.00
2018-02-22T22:41:08.365Z,12.50
2018-02-22T22:43:35.916Z,12.57
2018-02-22T22:46:03.486Z,19.27
2018-02-22T22:48:31.019Z,12.23
2018-02-22T22:50:58.572Z,13.93
2018-02-22T22:53:26.168Z,22.43
2018-02-22T22:55:53.712Z,12.33
2018-02-22T22:58:21.269Z,12.43
2018-02-22T23:00:48.843Z,22.43
2018-02-22T23:03:16.392Z,12.17
2018-02-22T23:05:43.952Z,19.07
2018-02-22T23:08:11.521Z,12.93
2018-02-22T23:10:39.062Z,21.13
2018-02-22T23:13:06.636Z,20.23
2018-02-22T23:15:34.315Z,19.20
2018-02-22T23:18:01.855Z,20.00
2018-02-22T23:20:29.408Z,19.70
2018-02-22T23:22:57.014Z,21.80
2018-02-22T23:25:24.559Z,21.30
2018-02-22T23:27:52.095Z,18.80
2018-02-22T23:30:19.671Z,21.63
2018-02-22T23:32:47.227Z,20.97
2018-02-22T23:35:14.774Z,21.33
2018-02-22T23:37:42.341Z,18.10
2018-02-22T23:43:13.569Z,11.27
2018-02-22T23:45:41.883Z,14.37
2018-02-22T23:48:09.437Z,18.23
2018-02-22T23:50:37.027Z,16.93
2018-02-22T23:53:04.596Z,19.03
2018-02-22T23:55:32.166Z,17.30
2018-02-22T23:57:59.802Z,17.90
